sensor_id;sensor_type;location;lat;lon;timestamp;P1;durP1;ratioP1;P2;durP2;ratioP2
39410;SDS011;26579;43.238;23.124;2022-09-25T00:00:59;7.10;;;3.58;;
39410;SDS011;26579;43.238;23.124;2022-09-25T00:03:26;5.53;;;3.25;;
39410;SDS011;26579;43.238;23.124;2022-09-25T00:06:07;6.05;;;3.42;;
39410;SDS011;26579;43.238;23.124;2022-09-25T00:08:52;3.58;;;2.38;;
39410;SDS011;26579;43.238;23.124;2022-09-25T00:11:19;3.88;;;2.50;;
39410;SDS011;26579;43.238;23.124;2022-09-25T00:13:48;6.47;;;2.85;;
39410;SDS011;26579;43.238;23.124;2022-09-25T00:16:15;5.07;;;2.83;;
39410;SDS011;26579;43.238;23.124;2022-09-25T00:18:43;5.57;;;3.40;;
39410;SDS011;26579;43.238;23.124;2022-09-25T00:21:10;6.18;;;3.40;;
39410;SDS011;26579;43.238;23.124;2022-09-25T00:23:38;6.10;;;3.13;;
39410;SDS011;26579;43.238;23.124;2022-09-25T00:26:06;6.35;;;3.17;;
39410;SDS011;26579;43.238;23.124;2022-09-25T00:28:36;5.47;;;3.40;;
39410;SDS011;26579;43.238;23.124;2022-09-25T00:31:03;4.82;;;3.22;;
39410;SDS011;26579;43.238;23.124;2022-09-25T00:33:33;4.72;;;3.10;;
39410;SDS011;26579;43.238;23.124;2022-09-25T00:36:03;6.10;;;3.20;;
39410;SDS011;26579;43.238;23.124;2022-09-25T00:38:30;5.53;;;3.55;;
39410;SDS011;26579;43.238;23.124;2022-09-25T00:40:57;5.20;;;2.97;;
39410;SDS011;26579;43.238;23.124;2022-09-25T00:43:39;6.65;;;3.78;;
39410;SDS011;26579;43.238;23.124;2022-09-25T00:54:28;6.60;;;3.75;;
39410;SDS011;26579;43.238;23.124;2022-09-25T00:56:57;6.32;;;3.45;;
39410;SDS011;26579;43.238;23.124;2022-09-25T00:59:33;13.70;;;5.95;;
39410;SDS011;26579;43.238;23.124;2022-09-25T01:02:03;12.02;;;4.35;;
39410;SDS011;26579;43.238;23.124;2022-09-25T01:04:29;9.10;;;3.60;;
39410;SDS011;26579;43.238;23.124;2022-09-25T01:06:58;7.97;;;3.58;;
39410;SDS011;26579;43.238;23.124;2022-09-25T01:09:24;7.75;;;2.90;;
39410;SDS011;26579;43.238;23.124;2022-09-25T01:11:50;9.50;;;4.20;;
39410;SDS011;26579;43.238;23.124;2022-09-25T01:14:16;5.43;;;2.90;;
39410;SDS011;26579;43.238;23.124;2022-09-25T01:16:46;7.75;;;4.47;;
39410;SDS011;26579;43.238;23.124;2022-09-25T01:19:21;5.22;;;3.25;;
39410;SDS011;26579;43.238;23.124;2022-09-25T01:25:14;6.45;;;3.10;;
39410;SDS011;26579;43.238;23.124;2022-09-25T01:31:08;5.40;;;3.25;;
39410;SDS011;26579;43.238;23.124;2022-09-25T01:33:44;5.95;;;3.00;;
39410;SDS011;26579;43.238;23.124;2022-09-25T01:39:36;9.52;;;3.40;;
39410;SDS011;26579;43.238;23.124;2022-09-25T01:41:53;5.63;;;3.10;;
39410;SDS011;26579;43.238;23.124;2022-09-25T01:44:35;4.15;;;2.60;;
39410;SDS011;26579;43.238;23.124;2022-09-25T01:47:06;7.00;;;3.60;;
39410;SDS011;26579;43.238;23.124;2022-09-25T01:49:43;8.50;;;2.88;;
39410;SDS011;26579;43.238;23.124;2022-09-25T01:52:18;7.22;;;3.85;;
39410;SDS011;26579;43.238;23.124;2022-09-25T01:54:52;5.07;;;3.03;;
39410;SDS011;26579;43.238;23.124;2022-09-25T01:57:39;5.18;;;2.92;;
39410;SDS011;26579;43.238;23.124;2022-09-25T02:00:09;4.07;;;2.47;;
39410;SDS011;26579;43.238;23.124;2022-09-25T02:02:39;4.18;;;2.38;;
39410;SDS011;26579;43.238;23.124;2022-09-25T02:08:05;6.10;;;2.95;;
39410;SDS011;26579;43.238;23.124;2022-09-25T02:10:37;7.15;;;3.92;;
39410;SDS011;26579;43.238;23.124;2022-09-25T02:13:13;8.48;;;3.92;;
39410;SDS011;26579;43.238;23.124;2022-09-25T02:15:45;6.28;;;3.33;;
39410;SDS011;26579;43.238;23.124;2022-09-25T02:18:18;4.82;;;3.20;;
39410;SDS011;26579;43.238;23.124;2022-09-25T02:20:45;4.95;;;3.00;;
39410;SDS011;26579;43.238;23.124;2022-09-25T02:23:30;7.60;;;4.78;;
39410;SDS011;26579;43.238;23.124;2022-09-25T02:26:08;6.85;;;3.83;;
39410;SDS011;26579;43.238;23.124;2022-09-25T02:28:40;6.35;;;3.20;;
39410;SDS011;26579;43.238;23.124;2022-09-25T02:31:07;4.95;;;2.70;;
39410;SDS011;26579;43.238;23.124;2022-09-25T02:33:36;4.45;;;2.35;;
39410;SDS011;26579;43.238;23.124;2022-09-25T02:36:02;4.72;;;2.20;;
39410;SDS011;26579;43.238;23.124;2022-09-25T02:38:28;3.50;;;2.42;;
39410;SDS011;26579;43.238;23.124;2022-09-25T02:40:59;6.03;;;3.60;;
39410;SDS011;26579;43.238;23.124;2022-09-25T02:46:38;5.00;;;3.05;;
39410;SDS011;26579;43.238;23.124;2022-09-25T02:49:09;4.93;;;2.60;;
39410;SDS011;26579;43.238;23.124;2022-09-25T02:52:10;10.00;;;3.28;;
39410;SDS011;26579;43.238;23.124;2022-09-25T02:54:59;4.03;;;2.25;;
39410;SDS011;26579;43.238;23.124;2022-09-25T02:57:37;3.72;;;2.50;;
39410;SDS011;26579;43.238;23.124;2022-09-25T03:00:15;3.45;;;2.47;;
39410;SDS011;26579;43.238;23.124;2022-09-25T03:02:42;4.10;;;2.70;;
39410;SDS011;26579;43.238;23.124;2022-09-25T03:05:10;4.22;;;2.65;;
39410;SDS011;26579;43.238;23.124;2022-09-25T03:07:37;5.60;;;3.03;;
39410;SDS011;26579;43.238;23.124;2022-09-25T03:10:04;4.28;;;2.55;;
39410;SDS011;26579;43.238;23.124;2022-09-25T03:12:34;5.15;;;3.20;;
39410;SDS011;26579;43.238;23.124;2022-09-25T03:15:00;5.55;;;2.80;;
39410;SDS011;26579;43.238;23.124;2022-09-25T03:17:26;7.53;;;3.78;;
39410;SDS011;26579;43.238;23.124;2022-09-25T03:19:52;8.35;;;3.90;;
39410;SDS011;26579;43.238;23.124;2022-09-25T03:22:19;5.90;;;2.97;;
39410;SDS011;26579;43.238;23.124;2022-09-25T03:24:47;5.82;;;3.63;;
39410;SDS011;26579;43.238;23.124;2022-09-25T03:27:13;5.72;;;2.42;;
39410;SDS011;26579;43.238;23.124;2022-09-25T03:29:38;4.82;;;3.25;;
39410;SDS011;26579;43.238;23.124;2022-09-25T03:32:04;6.82;;;3.72;;
39410;SDS011;26579;43.238;23.124;2022-09-25T03:34:30;8.27;;;5.28;;
39410;SDS011;26579;43.238;23.124;2022-09-25T03:36:55;4.97;;;3.47;;
39410;SDS011;26579;43.238;23.124;2022-09-25T03:39:21;5.13;;;3.10;;
39410;SDS011;26579;43.238;23.124;2022-09-25T03:41:47;9.45;;;3.28;;
39410;SDS011;26579;43.238;23.124;2022-09-25T03:44:12;5.38;;;2.50;;
39410;SDS011;26579;43.238;23.124;2022-09-25T03:46:38;6.57;;;2.90;;
39410;SDS011;26579;43.238;23.124;2022-09-25T03:49:04;4.93;;;3.40;;
39410;SDS011;26579;43.238;23.124;2022-09-25T03:51:29;5.72;;;2.65;;
39410;SDS011;26579;43.238;23.124;2022-09-25T03:53:56;4.15;;;2.30;;
39410;SDS011;26579;43.238;23.124;2022-09-25T03:56:24;4.05;;;2.80;;
39410;SDS011;26579;43.238;23.124;2022-09-25T03:58:52;3.92;;;2.30;;
39410;SDS011;26579;43.238;23.124;2022-09-25T04:01:18;7.00;;;2.42;;
39410;SDS011;26579;43.238;23.124;2022-09-25T04:03:44;4.22;;;2.47;;
39410;SDS011;26579;43.238;23.124;2022-09-25T04:06:10;5.60;;;3.03;;
39410;SDS011;26579;43.238;23.124;2022-09-25T04:08:35;4.63;;;2.70;;
39410;SDS011;26579;43.238;23.124;2022-09-25T04:11:01;4.97;;;2.72;;
39410;SDS011;26579;43.238;23.124;2022-09-25T04:13:28;5.20;;;3.53;;
39410;SDS011;26579;43.238;23.124;2022-09-25T04:15:56;9.70;;;4.55;;
39410;SDS011;26579;43.238;23.124;2022-09-25T04:18:24;8.63;;;4.55;;
39410;SDS011;26579;43.238;23.124;2022-09-25T04:20:50;6.05;;;3.67;;
39410;SDS011;26579;43.238;23.124;2022-09-25T04:23:16;8.70;;;4.43;;
39410;SDS011;26579;43.238;23.124;2022-09-25T04:25:42;6.22;;;3.28;;
39410;SDS011;26579;43.238;23.124;2022-09-25T04:28:07;6.63;;;3.10;;
39410;SDS011;26579;43.238;23.124;2022-09-25T04:30:33;7.45;;;4.25;;
39410;SDS011;26579;43.238;23.124;2022-09-25T04:32:59;9.90;;;4.28;;
39410;SDS011;26579;43.238;23.124;2022-09-25T04:35:25;8.30;;;5.10;;
39410;SDS011;26579;43.238;23.124;2022-09-25T04:37:50;11.63;;;6.65;;
39410;SDS011;26579;43.238;23.124;2022-09-25T04:40:16;10.73;;;6.55;;
39410;SDS011;26579;43.238;23.124;2022-09-25T04:42:42;9.45;;;5.93;;
39410;SDS011;26579;43.238;23.124;2022-09-25T04:45:07;10.98;;;6.63;;
39410;SDS011;26579;43.238;23.124;2022-09-25T04:47:33;8.85;;;5.55;;
39410;SDS011;26579;43.238;23.124;2022-09-25T04:49:59;9.90;;;5.63;;
39410;SDS011;26579;43.238;23.124;2022-09-25T04:52:25;10.63;;;5.07;;
39410;SDS011;26579;43.238;23.124;2022-09-25T04:54:50;7.95;;;5.55;;
39410;SDS011;26579;43.238;23.124;2022-09-25T04:57:17;13.52;;;7.57;;
39410;SDS011;26579;43.238;23.124;2022-09-25T04:59:44;15.93;;;8.02;;
39410;SDS011;26579;43.238;23.124;2022-09-25T05:02:10;16.63;;;8.80;;
39410;SDS011;26579;43.238;23.124;2022-09-25T05:04:37;15.10;;;8.48;;
39410;SDS011;26579;43.238;23.124;2022-09-25T05:07:03;11.90;;;7.18;;
39410;SDS011;26579;43.238;23.124;2022-09-25T05:09:29;9.15;;;5.20;;
39410;SDS011;26579;43.238;23.124;2022-09-25T05:11:55;7.25;;;3.97;;
39410;SDS011;26579;43.238;23.124;2022-09-25T05:14:21;7.35;;;5.05;;
39410;SDS011;26579;43.238;23.124;2022-09-25T05:16:47;7.28;;;4.43;;
39410;SDS011;26579;43.238;23.124;2022-09-25T05:19:13;8.98;;;4.45;;
39410;SDS011;26579;43.238;23.124;2022-09-25T05:21:38;8.13;;;4.47;;
39410;SDS011;26579;43.238;23.124;2022-09-25T05:24:04;6.22;;;4.03;;
39410;SDS011;26579;43.238;23.124;2022-09-25T05:26:30;8.18;;;4.57;;
39410;SDS011;26579;43.238;23.124;2022-09-25T05:28:56;6.80;;;3.92;;
39410;SDS011;26579;43.238;23.124;2022-09-25T05:31:22;6.63;;;4.60;;
39410;SDS011;26579;43.238;23.124;2022-09-25T05:33:47;5.88;;;3.65;;
39410;SDS011;26579;43.238;23.124;2022-09-25T05:36:13;7.30;;;4.57;;
39410;SDS011;26579;43.238;23.124;2022-09-25T05:38:39;6.35;;;4.20;;
39410;SDS011;26579;43.238;23.124;2022-09-25T05:41:06;9.68;;;5.13;;
39410;SDS011;26579;43.238;23.124;2022-09-25T05:43:33;11.52;;;6.40;;
39410;SDS011;26579;43.238;23.124;2022-09-25T05:46:02;16.63;;;9.40;;
39410;SDS011;26579;43.238;23.124;2022-09-25T05:48:28;16.67;;;10.23;;
39410;SDS011;26579;43.238;23.124;2022-09-25T05:50:54;16.67;;;9.48;;
39410;SDS011;26579;43.238;23.124;2022-09-25T05:53:21;9.73;;;6.15;;
39410;SDS011;26579;43.238;23.124;2022-09-25T05:55:48;6.97;;;4.30;;
39410;SDS011;26579;43.238;23.124;2022-09-25T05:58:17;14.85;;;6.63;;
39410;SDS011;26579;43.238;23.124;2022-09-25T06:00:43;14.52;;;8.20;;
39410;SDS011;26579;43.238;23.124;2022-09-25T06:03:09;13.10;;;7.95;;
39410;SDS011;26579;43.238;23.124;2022-09-25T06:05:35;12.05;;;7.65;;
39410;SDS011;26579;43.238;23.124;2022-09-25T06:08:01;12.43;;;6.78;;
39410;SDS011;26579;43.238;23.124;2022-09-25T06:10:27;11.25;;;6.30;;
39410;SDS011;26579;43.238;23.124;2022-09-25T06:12:56;8.82;;;6.25;;
39410;SDS011;26579;43.238;23.124;2022-09-25T06:15:23;9.27;;;5.95;;
39410;SDS011;26579;43.238;23.124;2022-09-25T06:17:50;8.32;;;5.10;;
39410;SDS011;26579;43.238;23.124;2022-09-25T06:20:16;9.00;;;5.10;;
39410;SDS011;26579;43.238;23.124;2022-09-25T06:22:42;5.03;;;3.55;;
39410;SDS011;26579;43.238;23.124;2022-09-25T06:25:08;7.28;;;3.10;;
39410;SDS011;26579;43.238;23.124;2022-09-25T06:27:34;9.98;;;3.80;;
39410;SDS011;26579;43.238;23.124;2022-09-25T06:30:00;9.10;;;3.58;;
39410;SDS011;26579;43.238;23.124;2022-09-25T06:32:25;8.63;;;4.18;;
39410;SDS011;26579;43.238;23.124;2022-09-25T06:34:51;8.57;;;3.70;;
39410;SDS011;26579;43.238;23.124;2022-09-25T06:37:17;10.07;;;5.10;;
39410;SDS011;26579;43.238;23.124;2022-09-25T06:39:42;10.13;;;4.70;;
39410;SDS011;26579;43.238;23.124;2022-09-25T06:42:08;11.43;;;5.20;;
39410;SDS011;26579;43.238;23.124;2022-09-25T06:44:35;11.13;;;5.07;;
39410;SDS011;26579;43.238;23.124;2022-09-25T06:47:00;9.07;;;5.15;;
39410;SDS011;26579;43.238;23.124;2022-09-25T06:49:26;8.05;;;5.13;;
39410;SDS011;26579;43.238;23.124;2022-09-25T06:51:52;11.80;;;4.95;;
39410;SDS011;26579;43.238;23.124;2022-09-25T06:54:17;11.23;;;4.93;;
39410;SDS011;26579;43.238;23.124;2022-09-25T06:56:46;16.42;;;7.57;;
39410;SDS011;26579;43.238;23.124;2022-09-25T06:59:13;18.95;;;10.20;;
39410;SDS011;26579;43.238;23.124;2022-09-25T07:01:39;13.93;;;9.25;;
39410;SDS011;26579;43.238;23.124;2022-09-25T07:04:04;15.27;;;10.07;;
39410;SDS011;26579;43.238;23.124;2022-09-25T07:06:30;14.50;;;9.77;;
39410;SDS011;26579;43.238;23.124;2022-09-25T07:08:56;21.30;;;13.13;;
39410;SDS011;26579;43.238;23.124;2022-09-25T07:11:22;19.58;;;13.20;;
39410;SDS011;26579;43.238;23.124;2022-09-25T07:13:49;19.25;;;12.95;;
39410;SDS011;26579;43.238;23.124;2022-09-25T07:16:16;21.25;;;12.63;;
39410;SDS011;26579;43.238;23.124;2022-09-25T07:18:43;21.02;;;12.30;;
39410;SDS011;26579;43.238;23.124;2022-09-25T07:21:11;20.85;;;13.02;;
39410;SDS011;26579;43.238;23.124;2022-09-25T07:23:38;16.13;;;10.05;;
39410;SDS011;26579;43.238;23.124;2022-09-25T07:26:11;12.60;;;8.48;;
39410;SDS011;26579;43.238;23.124;2022-09-25T07:28:39;8.48;;;6.10;;
39410;SDS011;26579;43.238;23.124;2022-09-25T07:33:44;8.25;;;5.85;;
39410;SDS011;26579;43.238;23.124;2022-09-25T07:36:09;9.95;;;5.35;;
39410;SDS011;26579;43.238;23.124;2022-09-25T07:38:35;6.45;;;4.43;;
39410;SDS011;26579;43.238;23.124;2022-09-25T07:41:02;6.88;;;4.80;;
39410;SDS011;26579;43.238;23.124;2022-09-25T07:43:29;10.05;;;6.70;;
39410;SDS011;26579;43.238;23.124;2022-09-25T07:45:54;13.18;;;8.07;;
39410;SDS011;26579;43.238;23.124;2022-09-25T07:48:20;18.88;;;7.50;;
39410;SDS011;26579;43.238;23.124;2022-09-25T07:50:46;11.15;;;6.45;;
39410;SDS011;26579;43.238;23.124;2022-09-25T07:53:11;8.02;;;5.13;;
39410;SDS011;26579;43.238;23.124;2022-09-25T07:55:37;10.63;;;5.82;;
39410;SDS011;26579;43.238;23.124;2022-09-25T07:58:03;10.38;;;5.55;;
39410;SDS011;26579;43.238;23.124;2022-09-25T08:00:28;8.65;;;5.28;;
39410;SDS011;26579;43.238;23.124;2022-09-25T08:02:58;8.07;;;5.88;;
39410;SDS011;26579;43.238;23.124;2022-09-25T08:05:26;8.13;;;4.70;;
39410;SDS011;26579;43.238;23.124;2022-09-25T08:07:54;13.85;;;8.82;;
39410;SDS011;26579;43.238;23.124;2022-09-25T08:10:20;10.75;;;7.10;;
39410;SDS011;26579;43.238;23.124;2022-09-25T08:12:46;9.85;;;3.47;;
39410;SDS011;26579;43.238;23.124;2022-09-25T08:15:12;5.63;;;3.28;;
39410;SDS011;26579;43.238;23.124;2022-09-25T08:17:38;3.78;;;3.08;;
39410;SDS011;26579;43.238;23.124;2022-09-25T08:20:04;5.32;;;3.67;;
39410;SDS011;26579;43.238;23.124;2022-09-25T08:22:30;4.75;;;3.10;;
39410;SDS011;26579;43.238;23.124;2022-09-25T08:24:55;4.88;;;2.53;;
39410;SDS011;26579;43.238;23.124;2022-09-25T08:27:21;4.35;;;2.97;;
39410;SDS011;26579;43.238;23.124;2022-09-25T08:29:47;4.00;;;2.70;;
39410;SDS011;26579;43.238;23.124;2022-09-25T08:32:13;5.38;;;2.58;;
39410;SDS011;26579;43.238;23.124;2022-09-25T08:34:39;4.00;;;2.50;;
39410;SDS011;26579;43.238;23.124;2022-09-25T08:37:04;4.55;;;2.30;;
39410;SDS011;26579;43.238;23.124;2022-09-25T08:39:30;3.70;;;2.45;;
39410;SDS011;26579;43.238;23.124;2022-09-25T08:41:59;3.35;;;2.47;;
39410;SDS011;26579;43.238;23.124;2022-09-25T08:47:04;4.63;;;2.55;;
39410;SDS011;26579;43.238;23.124;2022-09-25T08:52:29;4.80;;;2.65;;
39410;SDS011;26579;43.238;23.124;2022-09-25T08:54:55;4.25;;;2.60;;
39410;SDS011;26579;43.238;23.124;2022-09-25T08:57:31;4.03;;;2.55;;
39410;SDS011;26579;43.238;23.124;2022-09-25T09:00:02;3.88;;;2.58;;
39410;SDS011;26579;43.238;23.124;2022-09-25T09:02:36;4.20;;;2.70;;
39410;SDS011;26579;43.238;23.124;2022-09-25T09:05:16;3.92;;;2.60;;
39410;SDS011;26579;43.238;23.124;2022-09-25T09:13:16;4.53;;;2.97;;
39410;SDS011;26579;43.238;23.124;2022-09-25T09:15:51;5.72;;;3.47;;
39410;SDS011;26579;43.238;23.124;2022-09-25T09:23:41;6.30;;;4.00;;
39410;SDS011;26579;43.238;23.124;2022-09-25T09:26:31;6.13;;;2.85;;
39410;SDS011;26579;43.238;23.124;2022-09-25T09:36:54;4.47;;;2.65;;
39410;SDS011;26579;43.238;23.124;2022-09-25T09:39:37;3.85;;;2.40;;
39410;SDS011;26579;43.238;23.124;2022-09-25T09:42:24;4.95;;;3.08;;
39410;SDS011;26579;43.238;23.124;2022-09-25T09:50:14;5.82;;;3.10;;
39410;SDS011;26579;43.238;23.124;2022-09-25T09:52:53;6.13;;;2.95;;
39410;SDS011;26579;43.238;23.124;2022-09-25T09:55:32;5.43;;;4.20;;
39410;SDS011;26579;43.238;23.124;2022-09-25T09:58:27;15.30;;;11.00;;
39410;SDS011;26579;43.238;23.124;2022-09-25T10:01:02;6.13;;;3.25;;
39410;SDS011;26579;43.238;23.124;2022-09-25T10:03:28;5.25;;;3.05;;
39410;SDS011;26579;43.238;23.124;2022-09-25T10:05:58;6.20;;;2.50;;
39410;SDS011;26579;43.238;23.124;2022-09-25T10:08:27;5.25;;;2.60;;
39410;SDS011;26579;43.238;23.124;2022-09-25T10:10:54;4.88;;;2.72;;
39410;SDS011;26579;43.238;23.124;2022-09-25T10:13:30;4.03;;;2.92;;
39410;SDS011;26579;43.238;23.124;2022-09-25T10:16:10;6.25;;;2.92;;
39410;SDS011;26579;43.238;23.124;2022-09-25T10:21:29;3.20;;;2.40;;
39410;SDS011;26579;43.238;23.124;2022-09-25T10:24:00;4.18;;;2.67;;
39410;SDS011;26579;43.238;23.124;2022-09-25T10:26:27;4.43;;;2.95;;
39410;SDS011;26579;43.238;23.124;2022-09-25T10:29:01;4.10;;;2.80;;
39410;SDS011;26579;43.238;23.124;2022-09-25T10:31:47;5.95;;;2.28;;
39410;SDS011;26579;43.238;23.124;2022-09-25T10:34:26;6.40;;;2.85;;
39410;SDS011;26579;43.238;23.124;2022-09-25T10:36:52;4.72;;;2.65;;
39410;SDS011;26579;43.238;23.124;2022-09-25T10:39:29;4.60;;;2.33;;
39410;SDS011;26579;43.238;23.124;2022-09-25T10:41:56;4.63;;;2.67;;
39410;SDS011;26579;43.238;23.124;2022-09-25T10:46:55;4.90;;;2.53;;
39410;SDS011;26579;43.238;23.124;2022-09-25T10:49:22;4.00;;;2.08;;
39410;SDS011;26579;43.238;23.124;2022-09-25T10:52:02;3.78;;;2.35;;
39410;SDS011;26579;43.238;23.124;2022-09-25T10:54:29;3.30;;;2.03;;
39410;SDS011;26579;43.238;23.124;2022-09-25T10:56:55;3.30;;;2.38;;
39410;SDS011;26579;43.238;23.124;2022-09-25T10:59:21;2.90;;;2.13;;
39410;SDS011;26579;43.238;23.124;2022-09-25T11:01:48;3.53;;;2.20;;
39410;SDS011;26579;43.238;23.124;2022-09-25T11:04:16;3.10;;;2.40;;
39410;SDS011;26579;43.238;23.124;2022-09-25T11:06:47;4.05;;;2.65;;
39410;SDS011;26579;43.238;23.124;2022-09-25T11:09:21;7.72;;;2.60;;
39410;SDS011;26579;43.238;23.124;2022-09-25T11:11:49;5.65;;;2.35;;
39410;SDS011;26579;43.238;23.124;2022-09-25T11:14:26;3.70;;;2.15;;
39410;SDS011;26579;43.238;23.124;2022-09-25T11:16:54;4.47;;;2.65;;
39410;SDS011;26579;43.238;23.124;2022-09-25T11:21:55;4.30;;;2.70;;
39410;SDS011;26579;43.238;23.124;2022-09-25T11:27:33;5.13;;;2.83;;
39410;SDS011;26579;43.238;23.124;2022-09-25T11:30:05;4.80;;;2.70;;
39410;SDS011;26579;43.238;23.124;2022-09-25T11:38:06;2.95;;;2.05;;
39410;SDS011;26579;43.238;23.124;2022-09-25T11:40:56;6.32;;;2.83;;
39410;SDS011;26579;43.238;23.124;2022-09-25T11:46:18;3.83;;;2.58;;
39410;SDS011;26579;43.238;23.124;2022-09-25T11:56:44;6.40;;;2.85;;
39410;SDS011;26579;43.238;23.124;2022-09-25T12:02:00;6.65;;;3.25;;
39410;SDS011;26579;43.238;23.124;2022-09-25T12:16:05;6.10;;;3.35;;
39410;SDS011;26579;43.238;23.124;2022-09-25T12:21:31;4.35;;;3.20;;
39410;SDS011;26579;43.238;23.124;2022-09-25T12:29:29;6.35;;;3.00;;
39410;SDS011;26579;43.238;23.124;2022-09-25T12:34:55;5.25;;;3.38;;
39410;SDS011;26579;43.238;23.124;2022-09-25T12:37:34;6.90;;;3.80;;
39410;SDS011;26579;43.238;23.124;2022-09-25T12:40:03;6.65;;;3.40;;
39410;SDS011;26579;43.238;23.124;2022-09-25T12:43:20;6.53;;;3.40;;
39410;SDS011;26579;43.238;23.124;2022-09-25T12:45:48;4.43;;;2.83;;
39410;SDS011;26579;43.238;23.124;2022-09-25T12:53:32;4.55;;;2.78;;
39410;SDS011;26579;43.238;23.124;2022-09-25T12:56:13;6.30;;;2.92;;
39410;SDS011;26579;43.238;23.124;2022-09-25T13:07:13;7.28;;;2.92;;
39410;SDS011;26579;43.238;23.124;2022-09-25T13:09:45;4.60;;;2.85;;
39410;SDS011;26579;43.238;23.124;2022-09-25T13:12:17;6.30;;;3.25;;
39410;SDS011;26579;43.238;23.124;2022-09-25T13:17:37;4.65;;;2.72;;
39410;SDS011;26579;43.238;23.124;2022-09-25T13:22:50;4.63;;;2.78;;
39410;SDS011;26579;43.238;23.124;2022-09-25T13:25:21;5.35;;;2.60;;
39410;SDS011;26579;43.238;23.124;2022-09-25T13:27:48;4.20;;;2.72;;
39410;SDS011;26579;43.238;23.124;2022-09-25T13:30:21;5.57;;;3.28;;
39410;SDS011;26579;43.238;23.124;2022-09-25T13:32:52;3.85;;;2.70;;
39410;SDS011;26579;43.238;23.124;2022-09-25T13:35:22;4.43;;;2.90;;
39410;SDS011;26579;43.238;23.124;2022-09-25T13:37:49;5.53;;;2.90;;
39410;SDS011;26579;43.238;23.124;2022-09-25T13:40:19;5.00;;;3.42;;
39410;SDS011;26579;43.238;23.124;2022-09-25T13:42:47;10.48;;;3.30;;
39410;SDS011;26579;43.238;23.124;2022-09-25T13:50:26;3.70;;;2.75;;
39410;SDS011;26579;43.238;23.124;2022-09-25T13:55:41;5.00;;;2.78;;
39410;SDS011;26579;43.238;23.124;2022-09-25T13:58:19;6.22;;;2.78;;
39410;SDS011;26579;43.238;23.124;2022-09-25T14:05:55;4.37;;;3.00;;
39410;SDS011;26579;43.238;23.124;2022-09-25T14:08:22;5.55;;;3.00;;
39410;SDS011;26579;43.238;23.124;2022-09-25T14:10:52;6.13;;;2.95;;
39410;SDS011;26579;43.238;23.124;2022-09-25T14:13:20;5.32;;;3.05;;
39410;SDS011;26579;43.238;23.124;2022-09-25T14:15:48;4.40;;;3.00;;
39410;SDS011;26579;43.238;23.124;2022-09-25T14:18:22;6.15;;;3.80;;
39410;SDS011;26579;43.238;23.124;2022-09-25T14:20:55;8.77;;;4.55;;
39410;SDS011;26579;43.238;23.124;2022-09-25T14:23:24;9.18;;;4.93;;
39410;SDS011;26579;43.238;23.124;2022-09-25T14:26:04;6.00;;;3.03;;
39410;SDS011;26579;43.238;23.124;2022-09-25T14:28:42;8.48;;;3.72;;
39410;SDS011;26579;43.238;23.124;2022-09-25T14:37:30;3.78;;;2.83;;
39410;SDS011;26579;43.238;23.124;2022-09-25T14:48:13;4.95;;;3.42;;
39410;SDS011;26579;43.238;23.124;2022-09-25T14:50:48;9.13;;;3.85;;
39410;SDS011;26579;43.238;23.124;2022-09-25T14:56:09;9.40;;;4.50;;
39410;SDS011;26579;43.238;23.124;2022-09-25T14:58:36;8.30;;;3.40;;
39410;SDS011;26579;43.238;23.124;2022-09-25T15:01:09;7.65;;;3.83;;
39410;SDS011;26579;43.238;23.124;2022-09-25T15:03:48;7.80;;;3.50;;
39410;SDS011;26579;43.238;23.124;2022-09-25T15:06:25;6.35;;;3.30;;
39410;SDS011;26579;43.238;23.124;2022-09-25T15:08:52;6.95;;;3.30;;
39410;SDS011;26579;43.238;23.124;2022-09-25T15:11:19;6.93;;;3.53;;
39410;SDS011;26579;43.238;23.124;2022-09-25T15:13:45;5.70;;;3.58;;
39410;SDS011;26579;43.238;23.124;2022-09-25T15:16:17;11.45;;;4.05;;
39410;SDS011;26579;43.238;23.124;2022-09-25T15:18:53;8.80;;;3.72;;
39410;SDS011;26579;43.238;23.124;2022-09-25T15:23:49;8.63;;;3.22;;
39410;SDS011;26579;43.238;23.124;2022-09-25T15:26:16;9.00;;;3.95;;
39410;SDS011;26579;43.238;23.124;2022-09-25T15:28:42;9.70;;;3.40;;
39410;SDS011;26579;43.238;23.124;2022-09-25T15:31:09;5.47;;;3.70;;
39410;SDS011;26579;43.238;23.124;2022-09-25T15:33:35;7.18;;;4.05;;
39410;SDS011;26579;43.238;23.124;2022-09-25T15:36:08;8.60;;;3.80;;
39410;SDS011;26579;43.238;23.124;2022-09-25T15:38:40;18.48;;;11.00;;
39410;SDS011;26579;43.238;23.124;2022-09-25T15:41:07;15.70;;;10.73;;
39410;SDS011;26579;43.238;23.124;2022-09-25T15:43:37;13.10;;;8.73;;
39410;SDS011;26579;43.238;23.124;2022-09-25T15:48:38;13.68;;;5.88;;
39410;SDS011;26579;43.238;23.124;2022-09-25T15:53:48;9.10;;;5.80;;
39410;SDS011;26579;43.238;23.124;2022-09-25T15:56:23;9.40;;;5.45;;
39410;SDS011;26579;43.238;23.124;2022-09-25T15:58:52;10.07;;;4.72;;
39410;SDS011;26579;43.238;23.124;2022-09-25T16:01:25;10.73;;;5.90;;
39410;SDS011;26579;43.238;23.124;2022-09-25T16:03:53;10.93;;;6.78;;
39410;SDS011;26579;43.238;23.124;2022-09-25T16:06:18;9.63;;;6.00;;
39410;SDS011;26579;43.238;23.124;2022-09-25T16:08:44;11.02;;;7.30;;
39410;SDS011;26579;43.238;23.124;2022-09-25T16:11:13;11.00;;;6.50;;
39410;SDS011;26579;43.238;23.124;2022-09-25T16:13:46;10.35;;;6.47;;
39410;SDS011;26579;43.238;23.124;2022-09-25T16:18:47;12.38;;;6.40;;
39410;SDS011;26579;43.238;23.124;2022-09-25T16:24:06;13.65;;;7.78;;
39410;SDS011;26579;43.238;23.124;2022-09-25T16:26:42;13.63;;;8.70;;
39410;SDS011;26579;43.238;23.124;2022-09-25T16:29:15;11.52;;;7.13;;
39410;SDS011;26579;43.238;23.124;2022-09-25T16:31:47;12.63;;;7.00;;
39410;SDS011;26579;43.238;23.124;2022-09-25T16:34:16;11.43;;;5.70;;
39410;SDS011;26579;43.238;23.124;2022-09-25T16:36:45;9.15;;;6.22;;
39410;SDS011;26579;43.238;23.124;2022-09-25T16:39:12;9.25;;;6.32;;
39410;SDS011;26579;43.238;23.124;2022-09-25T16:41:46;8.80;;;5.78;;
39410;SDS011;26579;43.238;23.124;2022-09-25T16:44:14;10.60;;;6.80;;
39410;SDS011;26579;43.238;23.124;2022-09-25T16:46:43;9.55;;;5.35;;
39410;SDS011;26579;43.238;23.124;2022-09-25T16:49:10;9.18;;;5.60;;
39410;SDS011;26579;43.238;23.124;2022-09-25T16:51:37;13.05;;;7.95;;
39410;SDS011;26579;43.238;23.124;2022-09-25T16:54:07;12.23;;;7.63;;
39410;SDS011;26579;43.238;23.124;2022-09-25T16:56:34;12.10;;;7.57;;
39410;SDS011;26579;43.238;23.124;2022-09-25T16:58:59;14.23;;;8.45;;
39410;SDS011;26579;43.238;23.124;2022-09-25T17:01:26;18.25;;;9.45;;
39410;SDS011;26579;43.238;23.124;2022-09-25T17:03:52;14.25;;;9.18;;
39410;SDS011;26579;43.238;23.124;2022-09-25T17:06:19;13.55;;;9.23;;
39410;SDS011;26579;43.238;23.124;2022-09-25T17:08:47;13.38;;;9.30;;
39410;SDS011;26579;43.238;23.124;2022-09-25T17:11:13;15.85;;;8.02;;
39410;SDS011;26579;43.238;23.124;2022-09-25T17:13:41;10.20;;;6.80;;
39410;SDS011;26579;43.238;23.124;2022-09-25T17:16:07;9.15;;;5.95;;
39410;SDS011;26579;43.238;23.124;2022-09-25T17:18:34;11.95;;;6.82;;
39410;SDS011;26579;43.238;23.124;2022-09-25T17:21:01;13.15;;;7.70;;
39410;SDS011;26579;43.238;23.124;2022-09-25T17:23:29;11.90;;;7.05;;
39410;SDS011;26579;43.238;23.124;2022-09-25T17:28:29;12.27;;;5.88;;
39410;SDS011;26579;43.238;23.124;2022-09-25T17:30:55;10.13;;;6.43;;
39410;SDS011;26579;43.238;23.124;2022-09-25T17:33:21;15.18;;;5.97;;
39410;SDS011;26579;43.238;23.124;2022-09-25T17:35:49;11.85;;;6.63;;
39410;SDS011;26579;43.238;23.124;2022-09-25T17:38:16;12.15;;;6.75;;